Westport, Connecticut
Current Conditions -  °F | °C
As of 11:21 PM on Friday 31 Oct 2014 (Local Time) from KBDR Reporting Station
Light Rain Light Rain  
Wind Chill: 42°   Ceiling: 3100
Heat Index: 48°   Visibility: 10mi
Dew Point: 43°   Wind: 16mph
Humidity: 83%   Direction: 30°NNE
Pressure: 29.91"   Gusts: NA
Location:  41.14°N, 73.36°W
Report Text: KBDR 010321Z AUTO 03014KT 10SM -RA OVC031 09/06 A2991 RMK AO2 P0002 T00890061
Loading
Personal Weather Stations






























Interactive Weather Map New forecast layout! Learn more

10-Day Weather Forecast

Advertisements
Track Severe Weather on mobile